Terminal Aerodrome Forecast
Issued by NWS Wilmington, OH

Current Version | Previous Version | Text Only | Print | Product List | Glossary Off
Versions: 1 2 3 4 5 6 7 8 9 10 11 12 13 14 15 16 17 18 19 20 21 22 23 24 25

000
FTUS41 KILN 181400 AAA
TAFCVG
TAF AMD
KCVG 181458Z 1815/1918 32012G18KT P6SM OVC040
      TEMPO 1815/1817 BKN025
     FM181700 31012G20KT P6SM OVC025
     FM181900 32012G20KT P6SM VCSH BKN022
     FM182300 33010G18KT P6SM OVC020
     FM190600 34006KT P6SM SCT025
     FM191000 VRB03KT P6SM SKC=

USA.gov is the U.S. government's official web portal to all federal, state and local government web resources and services.